createdAt,value
2023-03-19T00:01:18.852Z,10.60
2023-03-19T00:04:04.798Z,10.60
2023-03-19T00:06:51.061Z,10.60
2023-03-19T00:09:36.739Z,10.50
2023-03-19T00:12:23.347Z,10.50
2023-03-19T00:15:14.098Z,10.50
2023-03-19T00:17:59.768Z,10.50
2023-03-19T00:20:45.842Z,10.50
2023-03-19T00:23:31.928Z,10.50
2023-03-19T00:26:17.780Z,10.50
2023-03-19T00:29:03.824Z,10.50
2023-03-19T00:31:50.557Z,10.50
2023-03-19T00:34:36.978Z,10.50
2023-03-19T00:37:22.561Z,10.40
2023-03-19T00:40:10.395Z,10.50
2023-03-19T00:42:55.890Z,10.50
2023-03-19T00:45:41.748Z,10.50
2023-03-19T00:48:27.319Z,10.40
2023-03-19T00:51:13.174Z,10.40
2023-03-19T00:53:58.784Z,10.40
2023-03-19T00:56:44.648Z,10.40
2023-03-19T00:59:30.540Z,10.30
2023-03-19T01:02:16.134Z,10.30
2023-03-19T01:05:01.697Z,10.30
2023-03-19T01:07:47.292Z,10.30
2023-03-19T01:10:34.868Z,10.20
2023-03-19T01:13:21.574Z,10.20
2023-03-19T01:16:07.477Z,10.20
2023-03-19T01:18:53.510Z,10.20
2023-03-19T01:21:39.068Z,10.20
2023-03-19T01:24:24.981Z,10.20
2023-03-19T01:27:13.419Z,10.20
2023-03-19T01:29:59.108Z,10.30
2023-03-19T01:33:03.872Z,10.20
2023-03-19T01:36:10.092Z,10.20
2023-03-19T01:39:14.973Z,10.20
2023-03-19T01:42:02.007Z,10.20
2023-03-19T01:44:54.995Z,10.20
2023-03-19T01:47:42.706Z,10.20
2023-03-19T01:50:42.145Z,10.10
2023-03-19T01:53:52.997Z,10.10
2023-03-19T01:56:56.834Z,10.10
2023-03-19T02:00:07.607Z,10.10
2023-03-19T02:03:03.057Z,10.10
2023-03-19T02:06:23.970Z,10.00
2023-03-19T02:09:10.040Z,9.90
2023-03-19T02:11:57.607Z,9.90
2023-03-19T02:14:43.476Z,9.90
2023-03-19T02:17:29.504Z,9.90
2023-03-19T02:20:23.317Z,10.00
2023-03-19T02:23:12.479Z,10.00
2023-03-19T02:26:08.696Z,9.90
2023-03-19T02:28:54.356Z,9.90
2023-03-19T02:31:44.947Z,9.90
2023-03-19T02:34:36.287Z,9.90
2023-03-19T02:37:27.726Z,10.00
2023-03-19T02:40:18.395Z,10.00
2023-03-19T02:43:04.400Z,10.00
2023-03-19T02:45:49.896Z,10.00
2023-03-19T02:48:36.732Z,9.90
2023-03-19T02:51:22.714Z,10.00
2023-03-19T02:54:08.246Z,9.90
2023-03-19T02:56:53.855Z,9.90
2023-03-19T02:59:39.466Z,9.90
2023-03-19T03:02:25.917Z,9.90
2023-03-19T03:05:11.257Z,9.90
2023-03-19T03:07:57.016Z,9.90
2023-03-19T03:10:42.579Z,9.90
2023-03-19T03:13:28.503Z,10.00
2023-03-19T03:16:15.606Z,10.00
2023-03-19T03:19:02.601Z,10.00
2023-03-19T03:21:48.461Z,9.90
2023-03-19T03:24:34.192Z,9.90
2023-03-19T03:27:20.345Z,9.90
2023-03-19T03:30:08.286Z,9.80
2023-03-19T03:32:54.408Z,9.70
2023-03-19T03:35:40.218Z,9.70
2023-03-19T03:38:25.751Z,9.60
2023-03-19T03:41:12.452Z,9.50
2023-03-19T03:43:57.977Z,9.30
2023-03-19T03:46:43.725Z,9.10
2023-03-19T03:49:29.412Z,9.20
2023-03-19T03:52:14.916Z,9.40
2023-03-19T03:55:01.346Z,9.40
2023-03-19T03:57:46.883Z,9.40
2023-03-19T04:00:32.875Z,9.50
2023-03-19T04:03:19.545Z,9.50
2023-03-19T04:06:05.216Z,9.60
2023-03-19T04:08:51.886Z,9.60
2023-03-19T04:11:38.697Z,9.60
2023-03-19T04:14:24.324Z,9.60
2023-03-19T04:17:10.281Z,9.60
2023-03-19T04:19:58.096Z,9.50
2023-03-19T04:22:45.247Z,9.50
2023-03-19T04:25:31.570Z,9.50
2023-03-19T04:28:17.583Z,9.50
2023-03-19T04:31:05.515Z,9.50
2023-03-19T04:33:53.480Z,9.40
2023-03-19T04:36:39.488Z,9.40
2023-03-19T04:39:25.800Z,9.40
2023-03-19T04:42:11.559Z,9.40
2023-03-19T04:45:27.096Z,9.40
2023-03-19T04:48:12.883Z,9.30
2023-03-19T04:50:59.623Z,9.30
2023-03-19T04:53:45.690Z,9.30
2023-03-19T04:56:32.439Z,9.20
2023-03-19T04:59:17.977Z,9.10
2023-03-19T05:02:03.592Z,9.00
2023-03-19T05:04:50.616Z,8.90
2023-03-19T05:07:36.483Z,8.80
2023-03-19T05:10:23.434Z,8.80
2023-03-19T05:13:09.235Z,8.80
2023-03-19T05:16:00.481Z,8.70
2023-03-19T05:18:46.073Z,8.60
2023-03-19T05:21:31.939Z,8.60
2023-03-19T05:24:17.716Z,8.70
2023-03-19T05:27:03.607Z,8.70
2023-03-19T05:30:08.709Z,8.70
2023-03-19T05:33:08.951Z,8.70
2023-03-19T05:35:58.884Z,8.70
2023-03-19T05:38:53.651Z,8.60
2023-03-19T05:41:47.240Z,8.50
2023-03-19T05:44:38.325Z,8.40
2023-03-19T05:47:43.275Z,8.40
2023-03-19T05:50:29.634Z,8.50
2023-03-19T05:53:29.478Z,8.60
2023-03-19T05:56:44.372Z,8.60
2023-03-19T05:59:56.366Z,8.60
2023-03-19T06:02:59.753Z,8.50
2023-03-19T06:05:56.255Z,8.60
2023-03-19T06:08:59.364Z,8.70
2023-03-19T06:11:59.772Z,8.80
2023-03-19T06:15:06.833Z,8.70
2023-03-19T06:18:12.363Z,8.80
2023-03-19T06:20:57.983Z,8.80
2023-03-19T06:23:43.745Z,8.80
2023-03-19T06:26:32.665Z,8.90
2023-03-19T06:29:20.803Z,8.90
2023-03-19T06:32:13.114Z,8.90
2023-03-19T06:35:01.115Z,8.80
2023-03-19T06:37:48.979Z,8.60
2023-03-19T06:40:34.641Z,8.40
2023-03-19T06:43:20.263Z,8.20
2023-03-19T06:46:08.818Z,8.30
2023-03-19T06:48:55.583Z,8.50
2023-03-19T06:51:41.547Z,8.60
2023-03-19T06:54:27.314Z,8.70
2023-03-19T06:57:13.128Z,8.90
2023-03-19T06:59:58.948Z,9.00
2023-03-19T07:02:44.907Z,9.10
2023-03-19T07:05:31.269Z,9.20
2023-03-19T07:08:17.200Z,9.30
2023-03-19T07:11:04.238Z,9.50
2023-03-19T07:13:50.103Z,9.50
2023-03-19T07:16:35.982Z,9.40
2023-03-19T07:19:21.532Z,9.40
2023-03-19T07:22:07.165Z,9.50
2023-03-19T07:24:52.820Z,9.70
2023-03-19T07:27:38.648Z,9.80
2023-03-19T07:30:24.433Z,9.90
2023-03-19T07:33:11.091Z,10.10
2023-03-19T07:35:56.771Z,10.10
2023-03-19T07:38:42.471Z,10.20
2023-03-19T07:41:28.232Z,10.30
2023-03-19T07:44:14.428Z,10.40
2023-03-19T07:46:59.780Z,10.50
2023-03-19T07:49:45.626Z,10.60
2023-03-19T07:52:31.413Z,10.60
2023-03-19T07:55:17.462Z,10.60
2023-03-19T07:58:03.033Z,10.70
2023-03-19T08:00:48.910Z,10.70
2023-03-19T08:03:34.883Z,10.70
2023-03-19T08:06:20.529Z,10.70
2023-03-19T08:09:06.948Z,10.80
2023-03-19T08:11:52.633Z,10.90
2023-03-19T08:14:38.078Z,11.00
2023-03-19T08:17:23.899Z,11.20
2023-03-19T08:20:13.967Z,11.30
2023-03-19T08:22:59.324Z,11.50
2023-03-19T08:25:45.449Z,11.70
2023-03-19T08:28:31.218Z,11.70
2023-03-19T08:31:16.780Z,11.70
2023-03-19T08:34:04.753Z,11.70
2023-03-19T08:36:50.241Z,11.90
2023-03-19T08:39:35.931Z,11.90
2023-03-19T08:42:22.671Z,12.10
2023-03-19T08:45:11.451Z,12.30
2023-03-19T08:47:58.811Z,12.40
2023-03-19T08:50:44.342Z,12.60
2023-03-19T08:53:30.575Z,12.70
2023-03-19T08:56:16.511Z,12.80
2023-03-19T08:59:02.370Z,13.00
2023-03-19T09:01:54.134Z,13.00
2023-03-19T09:04:43.335Z,13.20
2023-03-19T09:07:29.198Z,13.20
2023-03-19T09:10:15.119Z,13.40
2023-03-19T09:13:01.078Z,13.50
2023-03-19T09:15:46.774Z,13.60
2023-03-19T09:18:32.952Z,13.80
2023-03-19T09:21:18.387Z,13.80
2023-03-19T09:24:04.233Z,13.70
2023-03-19T09:26:50.319Z,13.30
2023-03-19T09:29:36.142Z,13.10
2023-03-19T09:32:22.026Z,12.90
2023-03-19T09:35:08.063Z,13.10
2023-03-19T09:37:53.518Z,13.10
2023-03-19T09:40:42.853Z,13.30
2023-03-19T09:43:40.066Z,13.50
2023-03-19T09:46:28.960Z,13.60
2023-03-19T09:49:14.643Z,13.80
2023-03-19T09:52:09.448Z,13.90
2023-03-19T09:54:57.416Z,14.00
2023-03-19T09:57:43.132Z,14.10
2023-03-19T10:00:37.001Z,14.50
2023-03-19T10:03:38.226Z,14.70
2023-03-19T10:06:27.612Z,14.90
2023-03-19T10:09:22.314Z,15.00
2023-03-19T10:12:23.372Z,15.20
2023-03-19T10:15:28.366Z,15.20
2023-03-19T10:18:22.172Z,15.10
2023-03-19T10:21:16.354Z,15.00
2023-03-19T10:24:08.133Z,15.00
2023-03-19T10:26:58.050Z,15.10
2023-03-19T10:29:43.772Z,15.20
2023-03-19T10:32:41.513Z,15.10
2023-03-19T10:35:42.230Z,15.20
2023-03-19T10:38:28.352Z,15.20
2023-03-19T10:41:17.018Z,15.30
2023-03-19T10:44:05.399Z,15.20
2023-03-19T10:46:51.069Z,15.20
2023-03-19T10:49:37.119Z,15.30
2023-03-19T10:52:25.143Z,15.20
2023-03-19T10:55:15.577Z,15.20
2023-03-19T10:58:03.366Z,15.30
2023-03-19T11:00:55.353Z,15.20
2023-03-19T11:03:50.103Z,15.30
2023-03-19T11:06:36.187Z,15.20
2023-03-19T11:09:32.825Z,15.10
2023-03-19T11:12:27.110Z,15.10
2023-03-19T11:15:21.647Z,15.10
2023-03-19T11:18:20.046Z,15.00
2023-03-19T11:21:07.286Z,15.10
2023-03-19T11:23:54.193Z,15.10
2023-03-19T11:26:39.776Z,15.30
2023-03-19T11:29:26.989Z,15.40
2023-03-19T11:32:32.334Z,15.50
2023-03-19T11:35:25.270Z,15.60
2023-03-19T11:38:18.652Z,15.90
2023-03-19T11:41:11.922Z,16.00
2023-03-19T11:44:03.798Z,16.20
2023-03-19T11:46:58.721Z,16.00
2023-03-19T11:49:47.597Z,16.00
2023-03-19T11:52:38.866Z,15.90
2023-03-19T11:55:36.427Z,16.00
2023-03-19T11:58:41.822Z,16.10
2023-03-19T12:01:39.286Z,16.30
2023-03-19T12:04:28.287Z,16.40
2023-03-19T12:07:13.998Z,16.50
2023-03-19T12:10:02.816Z,16.60
2023-03-19T12:12:48.488Z,16.70
2023-03-19T12:16:03.606Z,16.60
2023-03-19T12:18:49.486Z,16.30
2023-03-19T12:21:35.334Z,16.10
2023-03-19T12:24:24.155Z,16.10
2023-03-19T12:27:19.886Z,16.10
2023-03-19T12:30:17.885Z,16.10
2023-03-19T12:33:07.401Z,16.00
2023-03-19T12:35:56.098Z,16.10
2023-03-19T12:38:45.381Z,16.20
2023-03-19T12:41:32.358Z,16.30
2023-03-19T12:44:21.970Z,16.40
2023-03-19T12:47:19.092Z,16.40
2023-03-19T12:50:07.213Z,16.40
2023-03-19T12:52:58.158Z,16.40
2023-03-19T12:55:48.240Z,16.40
2023-03-19T12:58:51.078Z,16.30
2023-03-19T13:01:48.975Z,16.00
2023-03-19T13:04:39.927Z,16.00
2023-03-19T13:07:32.226Z,16.00
2023-03-19T13:10:19.316Z,15.80
2023-03-19T13:13:15.651Z,15.80
2023-03-19T13:16:16.855Z,15.60
2023-03-19T13:19:12.401Z,15.60
2023-03-19T13:22:00.444Z,15.60
2023-03-19T13:24:47.139Z,15.70
2023-03-19T13:27:34.331Z,15.70
2023-03-19T13:30:20.581Z,15.60
2023-03-19T13:33:14.347Z,15.60
2023-03-19T13:36:03.253Z,15.60
2023-03-19T13:38:50.376Z,15.60
2023-03-19T13:41:37.101Z,15.70
2023-03-19T13:44:22.816Z,15.70
2023-03-19T13:47:29.648Z,15.60
2023-03-19T13:50:21.276Z,15.50
2023-03-19T13:53:13.610Z,15.60
2023-03-19T13:55:59.606Z,15.50
2023-03-19T13:58:52.841Z,15.40
2023-03-19T14:01:38.966Z,15.50
2023-03-19T14:04:27.925Z,15.50
2023-03-19T14:07:16.702Z,15.60
2023-03-19T14:10:02.813Z,15.70
2023-03-19T14:12:48.956Z,15.70
2023-03-19T14:15:35.016Z,15.60
2023-03-19T14:18:22.228Z,15.80
2023-03-19T14:21:15.729Z,15.80
2023-03-19T14:24:54.825Z,15.60
2023-03-19T14:27:33.197Z,15.50
2023-03-19T14:30:26.508Z,15.50
2023-03-19T14:33:34.936Z,15.40
2023-03-19T14:36:21.865Z,15.30
2023-03-19T14:39:12.111Z,15.40
2023-03-19T14:42:03.225Z,15.30
2023-03-19T14:45:06.652Z,15.30
2023-03-19T14:47:52.896Z,15.30
2023-03-19T14:50:56.674Z,15.30
2023-03-19T14:54:01.401Z,15.30
2023-03-19T14:56:48.083Z,15.20
2023-03-19T14:59:38.227Z,15.20
2023-03-19T15:02:27.023Z,15.10
2023-03-19T15:05:29.751Z,15.00
2023-03-19T15:08:17.260Z,14.90
2023-03-19T15:11:09.026Z,14.90
2023-03-19T15:14:01.077Z,14.70
2023-03-19T15:17:08.566Z,14.60
2023-03-19T15:19:55.406Z,14.50
2023-03-19T15:22:41.210Z,14.40
2023-03-19T15:25:27.184Z,14.40
2023-03-19T15:28:14.877Z,14.40
2023-03-19T15:31:21.840Z,14.30
2023-03-19T15:34:19.576Z,14.20
2023-03-19T15:37:07.017Z,14.20
2023-03-19T15:39:54.615Z,14.20
2023-03-19T15:42:40.360Z,14.10
2023-03-19T15:45:29.466Z,14.00
2023-03-19T15:48:33.959Z,14.10
2023-03-19T15:51:21.332Z,14.00
2023-03-19T15:54:07.522Z,14.00
2023-03-19T15:56:53.341Z,14.00
2023-03-19T15:59:39.094Z,14.00
2023-03-19T16:02:24.731Z,14.00
2023-03-19T16:05:27.339Z,13.90
2023-03-19T16:08:24.995Z,13.90
2023-03-19T16:11:15.062Z,13.80
2023-03-19T16:14:20.865Z,13.80
2023-03-19T16:17:14.229Z,13.70
2023-03-19T16:20:03.892Z,13.60
2023-03-19T16:22:59.747Z,13.60
2023-03-19T16:25:46.454Z,13.40
2023-03-19T16:28:32.071Z,13.40
2023-03-19T16:31:22.397Z,13.30
2023-03-19T16:34:21.443Z,13.40
2023-03-19T16:37:26.194Z,13.40
2023-03-19T16:40:11.828Z,13.20
2023-03-19T16:43:06.565Z,13.20
2023-03-19T16:46:12.600Z,13.20
2023-03-19T16:48:58.256Z,13.20
2023-03-19T16:51:44.000Z,13.20
2023-03-19T16:54:29.907Z,13.20
2023-03-19T16:57:16.355Z,13.20
2023-03-19T17:00:02.234Z,13.20
2023-03-19T17:02:48.192Z,13.10
2023-03-19T17:05:33.924Z,13.10
2023-03-19T17:08:21.797Z,13.10
2023-03-19T17:11:12.592Z,13.10
2023-03-19T17:14:00.191Z,13.10
2023-03-19T17:16:50.561Z,13.10
2023-03-19T17:19:36.304Z,13.10
2023-03-19T17:22:23.353Z,13.00
2023-03-19T17:25:11.726Z,13.00
2023-03-19T17:27:57.720Z,12.90
2023-03-19T17:30:43.456Z,12.90
2023-03-19T17:33:29.614Z,13.00
2023-03-19T17:36:15.735Z,12.90
2023-03-19T17:39:01.834Z,12.90
2023-03-19T17:41:47.475Z,12.80
2023-03-19T17:44:33.426Z,12.90
2023-03-19T17:47:19.857Z,12.90
2023-03-19T17:50:08.128Z,12.90
2023-03-19T17:52:54.120Z,12.80
2023-03-19T17:55:39.580Z,12.80
2023-03-19T17:58:25.667Z,12.80
2023-03-19T18:01:16.845Z,12.80
2023-03-19T18:04:02.868Z,12.80
2023-03-19T18:06:49.859Z,12.80
2023-03-19T18:09:35.450Z,12.80
2023-03-19T18:12:21.311Z,12.80
2023-03-19T18:15:07.103Z,12.80
2023-03-19T18:17:54.496Z,12.70
2023-03-19T18:20:40.350Z,12.70
2023-03-19T18:23:26.038Z,12.70
2023-03-19T18:26:12.227Z,12.70
2023-03-19T18:28:57.918Z,12.70
2023-03-19T18:31:48.404Z,12.70
2023-03-19T18:34:36.252Z,12.70
2023-03-19T18:37:21.840Z,12.70
2023-03-19T18:40:10.060Z,12.70
2023-03-19T18:43:01.590Z,12.60
2023-03-19T18:45:48.900Z,12.60
2023-03-19T18:48:35.458Z,12.60
2023-03-19T18:51:20.761Z,12.60
2023-03-19T18:54:06.627Z,12.60
2023-03-19T18:56:54.783Z,12.60
2023-03-19T18:59:40.766Z,12.60
2023-03-19T19:02:34.128Z,12.70
2023-03-19T19:05:23.832Z,12.70
2023-03-19T19:08:16.695Z,12.80
2023-03-19T19:11:03.682Z,12.80
2023-03-19T19:13:56.097Z,12.70
2023-03-19T19:16:41.898Z,12.60
2023-03-19T19:19:27.754Z,12.60
2023-03-19T19:22:16.997Z,12.60
2023-03-19T19:25:02.751Z,12.60
2023-03-19T19:27:56.875Z,12.70
2023-03-19T19:30:44.037Z,12.70
2023-03-19T19:33:33.324Z,12.70
2023-03-19T19:36:19.456Z,12.70
2023-03-19T19:39:05.224Z,12.70
2023-03-19T19:41:52.231Z,12.60
2023-03-19T19:44:38.146Z,12.60
2023-03-19T19:47:23.736Z,12.60
2023-03-19T19:50:17.127Z,12.60
2023-03-19T19:53:02.582Z,12.50
2023-03-19T19:55:48.229Z,12.40
2023-03-19T19:58:34.041Z,12.40
2023-03-19T20:01:21.278Z,12.40
2023-03-19T20:04:06.986Z,12.40
2023-03-19T20:06:52.337Z,12.50
2023-03-19T20:09:37.894Z,12.60
2023-03-19T20:12:26.464Z,12.50
2023-03-19T20:15:16.354Z,12.50
2023-03-19T20:18:03.410Z,12.50
2023-03-19T20:20:49.680Z,12.50
2023-03-19T20:23:36.072Z,12.50
2023-03-19T20:26:23.635Z,12.40
2023-03-19T20:29:15.992Z,12.30
2023-03-19T20:32:02.385Z,12.30
2023-03-19T20:34:48.248Z,12.40
2023-03-19T20:37:34.052Z,12.40
2023-03-19T20:40:20.387Z,12.40
2023-03-19T20:43:07.642Z,12.30
2023-03-19T20:45:53.144Z,12.20
2023-03-19T20:48:38.774Z,12.10
2023-03-19T20:51:26.170Z,12.20
2023-03-19T20:54:11.778Z,12.30
2023-03-19T20:56:58.294Z,12.30
2023-03-19T20:59:45.896Z,12.30
2023-03-19T21:02:31.593Z,12.30
2023-03-19T21:05:17.985Z,12.30
2023-03-19T21:08:12.747Z,12.30
2023-03-19T21:10:58.370Z,12.30
2023-03-19T21:13:45.004Z,12.30
2023-03-19T21:16:32.348Z,12.30
2023-03-19T21:19:17.846Z,12.20
2023-03-19T21:22:03.534Z,12.20
2023-03-19T21:24:50.285Z,12.20
2023-03-19T21:27:36.876Z,12.70
2023-03-19T21:30:22.871Z,12.20
2023-03-19T21:33:26.335Z,12.20
2023-03-19T21:36:12.441Z,12.20
2023-03-19T21:38:58.255Z,12.20
2023-03-19T21:41:43.827Z,12.20
2023-03-19T21:44:31.332Z,12.20
2023-03-19T21:47:25.703Z,12.20
2023-03-19T21:50:15.750Z,12.20
2023-03-19T21:53:01.876Z,12.20
2023-03-19T21:55:48.318Z,12.20
2023-03-19T21:58:35.454Z,12.20
2023-03-19T22:01:23.663Z,12.20
2023-03-19T22:04:09.531Z,12.20
2023-03-19T22:06:55.021Z,12.20
2023-03-19T22:09:40.941Z,12.20
2023-03-19T22:12:27.555Z,12.20
2023-03-19T22:15:19.661Z,12.10
2023-03-19T22:18:06.773Z,12.10
2023-03-19T22:20:52.972Z,12.00
2023-03-19T22:23:38.220Z,12.00
2023-03-19T22:26:28.688Z,11.90
2023-03-19T22:29:17.219Z,11.90
2023-03-19T22:32:02.589Z,11.90
2023-03-19T22:34:48.261Z,12.00
2023-03-19T22:37:33.817Z,12.00
2023-03-19T22:40:19.641Z,12.10
2023-03-19T22:43:15.751Z,12.10
2023-03-19T22:46:07.100Z,12.10
2023-03-19T22:48:52.792Z,12.00
2023-03-19T22:51:38.592Z,12.10
2023-03-19T22:54:24.391Z,12.10
2023-03-19T22:57:12.702Z,12.10
2023-03-19T22:59:58.314Z,12.00
2023-03-19T23:02:45.387Z,12.00
2023-03-19T23:05:33.768Z,12.00
2023-03-19T23:08:19.631Z,11.90
2023-03-19T23:11:05.877Z,11.80
2023-03-19T23:13:51.793Z,11.80
2023-03-19T23:16:38.870Z,11.60
2023-03-19T23:19:30.512Z,11.70
2023-03-19T23:22:16.662Z,11.70
2023-03-19T23:25:02.491Z,11.70
2023-03-19T23:27:48.305Z,11.80
2023-03-19T23:30:34.004Z,11.80
2023-03-19T23:33:20.142Z,11.90
2023-03-19T23:36:05.926Z,11.90
2023-03-19T23:38:51.695Z,11.90
2023-03-19T23:41:43.091Z,11.90
2023-03-19T23:44:29.317Z,11.90
2023-03-19T23:47:15.666Z,11.90
2023-03-19T23:50:01.213Z,11.90
2023-03-19T23:52:46.703Z,11.90
2023-03-19T23:55:32.897Z,11.90
2023-03-19T23:58:18.884Z,11.90
